Weather at Roanoke–Blacksburg Regional Airport

Public forecast

Using degrees Fahrenheit for public forecast. Weather courtesy of forecast.io.

Current aviation weather report (METAR) for Roanoke–Blacksburg Regional Airport

Retrieved 2021/07/24 18:54 UTC (60 minutes ago):

KROA 241854Z 15010KT 10SM SCT060 32/18 A3007 RMK AO2 SLP168 T03220183

Aviation forecast (TAF) for Roanoke–Blacksburg Regional Airport

Retrieved 2021/07/24 18:24 UTC (1 hour ago):

TAF KROA 241721Z 2418/2518 16006KT P6SM SCT050 FM241900 17007KT P6SM VCTS SCT045CB FM250100 18004KT P6SM SCT040 FM250900 26005KT P6SM SCT120